sensor_id;sensor_type;location;lat;lon;timestamp;temperature;humidity
12329;DHT22;6230;52.390;10.256;2023-03-18T00:02:06;15.20;49.50
12329;DHT22;6230;52.390;10.256;2023-03-18T00:04:32;15.20;49.50
12329;DHT22;6230;52.390;10.256;2023-03-18T00:06:58;15.20;49.60
12329;DHT22;6230;52.390;10.256;2023-03-18T00:09:24;15.20;49.60
12329;DHT22;6230;52.390;10.256;2023-03-18T00:11:50;15.20;49.70
12329;DHT22;6230;52.390;10.256;2023-03-18T00:14:16;15.20;49.70
12329;DHT22;6230;52.390;10.256;2023-03-18T00:16:42;15.20;49.80
12329;DHT22;6230;52.390;10.256;2023-03-18T00:19:07;15.20;49.80
12329;DHT22;6230;52.390;10.256;2023-03-18T00:21:33;15.20;49.80
12329;DHT22;6230;52.390;10.256;2023-03-18T00:23:59;15.20;49.80
12329;DHT22;6230;52.390;10.256;2023-03-18T00:26:26;15.20;49.80
12329;DHT22;6230;52.390;10.256;2023-03-18T00:28:54;15.20;49.80
12329;DHT22;6230;52.390;10.256;2023-03-18T00:31:20;15.20;49.80
12329;DHT22;6230;52.390;10.256;2023-03-18T00:33:46;15.20;49.90
12329;DHT22;6230;52.390;10.256;2023-03-18T00:36:15;15.20;50.00
12329;DHT22;6230;52.390;10.256;2023-03-18T00:38:43;15.20;50.00
12329;DHT22;6230;52.390;10.256;2023-03-18T00:41:11;15.20;50.10
12329;DHT22;6230;52.390;10.256;2023-03-18T00:43:39;15.20;50.10
12329;DHT22;6230;52.390;10.256;2023-03-18T00:46:16;15.20;50.30
12329;DHT22;6230;52.390;10.256;2023-03-18T00:48:42;15.10;50.30
12329;DHT22;6230;52.390;10.256;2023-03-18T00:51:08;15.10;50.50
12329;DHT22;6230;52.390;10.256;2023-03-18T00:53:39;15.10;50.60
12329;DHT22;6230;52.390;10.256;2023-03-18T00:56:05;15.10;50.80
12329;DHT22;6230;52.390;10.256;2023-03-18T00:58:31;15.10;50.80
12329;DHT22;6230;52.390;10.256;2023-03-18T01:00:56;15.10;51.00
12329;DHT22;6230;52.390;10.256;2023-03-18T01:03:22;15.00;51.00
12329;DHT22;6230;52.390;10.256;2023-03-18T01:05:50;15.00;51.10
12329;DHT22;6230;52.390;10.256;2023-03-18T01:08:16;15.00;51.10
12329;DHT22;6230;52.390;10.256;2023-03-18T01:10:41;15.00;51.20
12329;DHT22;6230;52.390;10.256;2023-03-18T01:13:07;15.00;51.30
12329;DHT22;6230;52.390;10.256;2023-03-18T01:15:33;15.00;51.40
12329;DHT22;6230;52.390;10.256;2023-03-18T01:17:59;14.90;51.50
12329;DHT22;6230;52.390;10.256;2023-03-18T01:20:25;14.90;51.60
12329;DHT22;6230;52.390;10.256;2023-03-18T01:22:51;14.90;51.60
12329;DHT22;6230;52.390;10.256;2023-03-18T01:25:17;14.90;51.70
12329;DHT22;6230;52.390;10.256;2023-03-18T01:27:43;15.00;51.80
12329;DHT22;6230;52.390;10.256;2023-03-18T01:30:09;14.90;51.80
12329;DHT22;6230;52.390;10.256;2023-03-18T01:32:35;14.90;51.90
12329;DHT22;6230;52.390;10.256;2023-03-18T01:35:02;14.90;51.90
12329;DHT22;6230;52.390;10.256;2023-03-18T01:37:28;14.90;52.00
12329;DHT22;6230;52.390;10.256;2023-03-18T01:39:54;14.90;52.10
12329;DHT22;6230;52.390;10.256;2023-03-18T01:42:20;14.90;52.10
12329;DHT22;6230;52.390;10.256;2023-03-18T01:44:47;14.90;52.10
12329;DHT22;6230;52.390;10.256;2023-03-18T01:47:13;14.90;52.20
12329;DHT22;6230;52.390;10.256;2023-03-18T01:49:50;14.90;52.30
12329;DHT22;6230;52.390;10.256;2023-03-18T01:52:24;14.90;53.00
12329;DHT22;6230;52.390;10.256;2023-03-18T01:55:04;14.80;52.40
12329;DHT22;6230;52.390;10.256;2023-03-18T01:57:31;14.70;52.50
12329;DHT22;6230;52.390;10.256;2023-03-18T01:59:58;14.70;52.50
12329;DHT22;6230;52.390;10.256;2023-03-18T02:02:24;14.70;52.70
12329;DHT22;6230;52.390;10.256;2023-03-18T02:04:53;14.70;52.70
12329;DHT22;6230;52.390;10.256;2023-03-18T02:07:23;14.70;52.80
12329;DHT22;6230;52.390;10.256;2023-03-18T02:09:50;14.60;52.90
12329;DHT22;6230;52.390;10.256;2023-03-18T02:12:24;14.60;52.90
12329;DHT22;6230;52.390;10.256;2023-03-18T02:14:51;14.60;53.00
12329;DHT22;6230;52.390;10.256;2023-03-18T02:17:20;14.60;53.20
12329;DHT22;6230;52.390;10.256;2023-03-18T02:20:19;14.60;53.10
12329;DHT22;6230;52.390;10.256;2023-03-18T02:22:52;14.50;53.20
12329;DHT22;6230;52.390;10.256;2023-03-18T02:25:34;14.50;53.20
12329;DHT22;6230;52.390;10.256;2023-03-18T02:28:07;14.50;53.20
12329;DHT22;6230;52.390;10.256;2023-03-18T02:30:38;14.50;53.30
12329;DHT22;6230;52.390;10.256;2023-03-18T02:33:05;14.40;53.40
12329;DHT22;6230;52.390;10.256;2023-03-18T02:35:31;14.40;53.50
12329;DHT22;6230;52.390;10.256;2023-03-18T02:37:58;14.40;53.60
12329;DHT22;6230;52.390;10.256;2023-03-18T02:40:27;14.40;53.70
12329;DHT22;6230;52.390;10.256;2023-03-18T02:42:53;14.40;53.80
12329;DHT22;6230;52.390;10.256;2023-03-18T02:48:19;14.40;53.90
12329;DHT22;6230;52.390;10.256;2023-03-18T02:50:47;14.40;53.80
12329;DHT22;6230;52.390;10.256;2023-03-18T02:53:14;14.40;53.70
12329;DHT22;6230;52.390;10.256;2023-03-18T02:55:40;14.40;53.80
12329;DHT22;6230;52.390;10.256;2023-03-18T02:58:07;14.40;53.80
12329;DHT22;6230;52.390;10.256;2023-03-18T03:00:34;14.40;53.70
12329;DHT22;6230;52.390;10.256;2023-03-18T03:02:59;14.40;53.80
12329;DHT22;6230;52.390;10.256;2023-03-18T03:05:26;14.40;53.70
12329;DHT22;6230;52.390;10.256;2023-03-18T03:07:51;14.40;53.70
12329;DHT22;6230;52.390;10.256;2023-03-18T03:10:17;14.50;53.70
12329;DHT22;6230;52.390;10.256;2023-03-18T03:12:43;14.50;53.70
12329;DHT22;6230;52.390;10.256;2023-03-18T03:15:10;14.40;53.70
12329;DHT22;6230;52.390;10.256;2023-03-18T03:17:35;14.40;53.70
12329;DHT22;6230;52.390;10.256;2023-03-18T03:20:02;14.40;53.90
12329;DHT22;6230;52.390;10.256;2023-03-18T03:22:30;14.40;53.90
12329;DHT22;6230;52.390;10.256;2023-03-18T03:24:56;14.40;53.90
12329;DHT22;6230;52.390;10.256;2023-03-18T03:27:22;14.40;54.00
12329;DHT22;6230;52.390;10.256;2023-03-18T03:29:48;14.40;54.00
12329;DHT22;6230;52.390;10.256;2023-03-18T03:32:13;14.40;54.20
12329;DHT22;6230;52.390;10.256;2023-03-18T03:34:40;14.40;54.20
12329;DHT22;6230;52.390;10.256;2023-03-18T03:37:06;14.40;54.30
12329;DHT22;6230;52.390;10.256;2023-03-18T03:39:32;14.40;54.30
12329;DHT22;6230;52.390;10.256;2023-03-18T03:41:58;14.40;54.40
12329;DHT22;6230;52.390;10.256;2023-03-18T03:44:23;14.40;54.50
12329;DHT22;6230;52.390;10.256;2023-03-18T03:46:49;14.50;54.50
12329;DHT22;6230;52.390;10.256;2023-03-18T03:49:15;14.40;54.60
12329;DHT22;6230;52.390;10.256;2023-03-18T03:51:41;14.40;54.90
12329;DHT22;6230;52.390;10.256;2023-03-18T03:54:06;14.40;55.10
12329;DHT22;6230;52.390;10.256;2023-03-18T03:56:32;14.30;55.30
12329;DHT22;6230;52.390;10.256;2023-03-18T03:58:58;14.30;55.60
12329;DHT22;6230;52.390;10.256;2023-03-18T04:01:24;14.20;55.80
12329;DHT22;6230;52.390;10.256;2023-03-18T04:03:51;14.20;56.10
12329;DHT22;6230;52.390;10.256;2023-03-18T04:06:17;14.10;56.40
12329;DHT22;6230;52.390;10.256;2023-03-18T04:08:42;14.10;56.80
12329;DHT22;6230;52.390;10.256;2023-03-18T04:11:08;14.00;57.10
12329;DHT22;6230;52.390;10.256;2023-03-18T04:13:34;14.00;57.30
12329;DHT22;6230;52.390;10.256;2023-03-18T04:15:59;14.00;57.50
12329;DHT22;6230;52.390;10.256;2023-03-18T04:18:25;13.90;57.70
12329;DHT22;6230;52.390;10.256;2023-03-18T04:20:51;13.90;58.00
12329;DHT22;6230;52.390;10.256;2023-03-18T04:23:16;13.90;58.20
12329;DHT22;6230;52.390;10.256;2023-03-18T04:25:42;13.80;58.40
12329;DHT22;6230;52.390;10.256;2023-03-18T04:28:08;13.80;58.60
12329;DHT22;6230;52.390;10.256;2023-03-18T04:30:33;13.80;58.80
12329;DHT22;6230;52.390;10.256;2023-03-18T04:32:59;13.80;58.90
12329;DHT22;6230;52.390;10.256;2023-03-18T04:35:26;13.70;59.10
12329;DHT22;6230;52.390;10.256;2023-03-18T04:37:52;13.70;59.30
12329;DHT22;6230;52.390;10.256;2023-03-18T04:40:19;13.70;59.50
12329;DHT22;6230;52.390;10.256;2023-03-18T04:42:45;13.70;59.50
12329;DHT22;6230;52.390;10.256;2023-03-18T04:45:13;13.70;59.70
12329;DHT22;6230;52.390;10.256;2023-03-18T04:47:40;13.70;60.00
12329;DHT22;6230;52.390;10.256;2023-03-18T04:50:06;13.60;60.30
12329;DHT22;6230;52.390;10.256;2023-03-18T04:52:35;13.60;60.50
12329;DHT22;6230;52.390;10.256;2023-03-18T04:55:01;13.60;60.60
12329;DHT22;6230;52.390;10.256;2023-03-18T04:57:27;13.60;60.60
12329;DHT22;6230;52.390;10.256;2023-03-18T04:59:53;13.60;60.70
12329;DHT22;6230;52.390;10.256;2023-03-18T05:02:19;13.70;60.80
12329;DHT22;6230;52.390;10.256;2023-03-18T05:04:45;13.70;60.90
12329;DHT22;6230;52.390;10.256;2023-03-18T05:07:14;13.60;61.00
12329;DHT22;6230;52.390;10.256;2023-03-18T05:09:40;13.60;61.30
12329;DHT22;6230;52.390;10.256;2023-03-18T05:12:11;13.60;61.50
12329;DHT22;6230;52.390;10.256;2023-03-18T05:14:37;13.50;61.70
12329;DHT22;6230;52.390;10.256;2023-03-18T05:17:03;13.50;61.70
12329;DHT22;6230;52.390;10.256;2023-03-18T05:19:28;13.50;61.90
12329;DHT22;6230;52.390;10.256;2023-03-18T05:21:54;13.50;62.10
12329;DHT22;6230;52.390;10.256;2023-03-18T05:24:20;13.40;62.20
12329;DHT22;6230;52.390;10.256;2023-03-18T05:26:46;13.40;62.40
12329;DHT22;6230;52.390;10.256;2023-03-18T05:29:12;13.40;62.60
12329;DHT22;6230;52.390;10.256;2023-03-18T05:31:38;13.40;62.70
12329;DHT22;6230;52.390;10.256;2023-03-18T05:34:04;13.40;62.90
12329;DHT22;6230;52.390;10.256;2023-03-18T05:36:31;13.40;63.00
12329;DHT22;6230;52.390;10.256;2023-03-18T05:38:57;13.40;63.10
12329;DHT22;6230;52.390;10.256;2023-03-18T05:41:23;13.40;63.40
12329;DHT22;6230;52.390;10.256;2023-03-18T05:43:49;13.40;63.50
12329;DHT22;6230;52.390;10.256;2023-03-18T05:46:14;13.40;63.60
12329;DHT22;6230;52.390;10.256;2023-03-18T05:48:40;13.40;63.70
12329;DHT22;6230;52.390;10.256;2023-03-18T05:51:06;13.40;63.80
12329;DHT22;6230;52.390;10.256;2023-03-18T05:53:32;13.30;63.80
12329;DHT22;6230;52.390;10.256;2023-03-18T05:55:58;13.30;64.20
12329;DHT22;6230;52.390;10.256;2023-03-18T05:58:24;13.30;64.30
12329;DHT22;6230;52.390;10.256;2023-03-18T06:00:50;13.30;64.40
12329;DHT22;6230;52.390;10.256;2023-03-18T06:03:16;13.30;64.40
12329;DHT22;6230;52.390;10.256;2023-03-18T06:05:42;13.30;64.70
12329;DHT22;6230;52.390;10.256;2023-03-18T06:08:08;13.30;64.70
12329;DHT22;6230;52.390;10.256;2023-03-18T06:10:33;13.30;64.90
12329;DHT22;6230;52.390;10.256;2023-03-18T06:12:59;13.30;64.90
12329;DHT22;6230;52.390;10.256;2023-03-18T06:15:25;13.30;64.90
12329;DHT22;6230;52.390;10.256;2023-03-18T06:17:50;13.30;64.80
12329;DHT22;6230;52.390;10.256;2023-03-18T06:20:17;13.30;64.80
12329;DHT22;6230;52.390;10.256;2023-03-18T06:22:44;13.30;64.90
12329;DHT22;6230;52.390;10.256;2023-03-18T06:25:15;13.30;65.00
12329;DHT22;6230;52.390;10.256;2023-03-18T06:27:40;13.20;65.00
12329;DHT22;6230;52.390;10.256;2023-03-18T06:30:06;13.20;65.00
12329;DHT22;6230;52.390;10.256;2023-03-18T06:32:32;13.20;65.00
12329;DHT22;6230;52.390;10.256;2023-03-18T06:34:58;13.20;65.00
12329;DHT22;6230;52.390;10.256;2023-03-18T06:37:24;13.20;65.10
12329;DHT22;6230;52.390;10.256;2023-03-18T06:39:50;13.20;65.20
12329;DHT22;6230;52.390;10.256;2023-03-18T06:42:15;13.20;65.20
12329;DHT22;6230;52.390;10.256;2023-03-18T06:44:41;13.20;65.20
12329;DHT22;6230;52.390;10.256;2023-03-18T06:47:10;13.30;65.30
12329;DHT22;6230;52.390;10.256;2023-03-18T06:49:36;13.30;65.20
12329;DHT22;6230;52.390;10.256;2023-03-18T06:52:01;13.30;65.30
12329;DHT22;6230;52.390;10.256;2023-03-18T06:54:28;13.30;65.30
12329;DHT22;6230;52.390;10.256;2023-03-18T06:56:53;13.40;65.40
12329;DHT22;6230;52.390;10.256;2023-03-18T06:59:19;13.40;65.40
12329;DHT22;6230;52.390;10.256;2023-03-18T07:01:47;13.40;65.50
12329;DHT22;6230;52.390;10.256;2023-03-18T07:04:13;13.40;65.60
12329;DHT22;6230;52.390;10.256;2023-03-18T07:06:39;13.50;65.70
12329;DHT22;6230;52.390;10.256;2023-03-18T07:09:05;13.50;65.80
12329;DHT22;6230;52.390;10.256;2023-03-18T07:11:31;13.50;65.90
12329;DHT22;6230;52.390;10.256;2023-03-18T07:13:56;13.50;65.90
12329;DHT22;6230;52.390;10.256;2023-03-18T07:16:22;13.60;65.90
12329;DHT22;6230;52.390;10.256;2023-03-18T07:18:47;13.60;66.00
12329;DHT22;6230;52.390;10.256;2023-03-18T07:21:13;13.70;66.10
12329;DHT22;6230;52.390;10.256;2023-03-18T07:23:38;13.70;66.10
12329;DHT22;6230;52.390;10.256;2023-03-18T07:26:05;13.70;66.10
12329;DHT22;6230;52.390;10.256;2023-03-18T07:28:31;13.70;66.10
12329;DHT22;6230;52.390;10.256;2023-03-18T07:30:57;13.80;66.20
12329;DHT22;6230;52.390;10.256;2023-03-18T07:33:22;13.80;66.20
12329;DHT22;6230;52.390;10.256;2023-03-18T07:35:48;13.80;66.30
12329;DHT22;6230;52.390;10.256;2023-03-18T07:38:14;13.90;66.40
12329;DHT22;6230;52.390;10.256;2023-03-18T07:40:40;13.90;66.50
12329;DHT22;6230;52.390;10.256;2023-03-18T07:43:06;14.00;66.60
12329;DHT22;6230;52.390;10.256;2023-03-18T07:45:32;14.00;66.70
12329;DHT22;6230;52.390;10.256;2023-03-18T07:47:59;14.10;66.90
12329;DHT22;6230;52.390;10.256;2023-03-18T07:50:24;14.10;67.10
12329;DHT22;6230;52.390;10.256;2023-03-18T07:52:50;14.10;67.20
12329;DHT22;6230;52.390;10.256;2023-03-18T07:55:16;14.20;67.40
12329;DHT22;6230;52.390;10.256;2023-03-18T07:57:42;14.20;67.50
12329;DHT22;6230;52.390;10.256;2023-03-18T08:00:09;14.30;67.60
12329;DHT22;6230;52.390;10.256;2023-03-18T08:02:35;14.30;67.80
12329;DHT22;6230;52.390;10.256;2023-03-18T08:05:01;14.30;67.80
12329;DHT22;6230;52.390;10.256;2023-03-18T08:07:27;14.30;68.00
12329;DHT22;6230;52.390;10.256;2023-03-18T08:09:54;14.40;68.00
12329;DHT22;6230;52.390;10.256;2023-03-18T08:12:20;14.40;68.00
12329;DHT22;6230;52.390;10.256;2023-03-18T08:14:46;14.40;68.00
12329;DHT22;6230;52.390;10.256;2023-03-18T08:17:14;14.50;68.10
12329;DHT22;6230;52.390;10.256;2023-03-18T08:19:39;14.50;68.20
12329;DHT22;6230;52.390;10.256;2023-03-18T08:22:05;14.60;68.40
12329;DHT22;6230;52.390;10.256;2023-03-18T08:24:32;14.70;68.40
12329;DHT22;6230;52.390;10.256;2023-03-18T08:26:58;14.80;68.40
12329;DHT22;6230;52.390;10.256;2023-03-18T08:29:24;14.90;68.40
12329;DHT22;6230;52.390;10.256;2023-03-18T08:31:49;14.90;68.40
12329;DHT22;6230;52.390;10.256;2023-03-18T08:34:15;15.00;69.20
12329;DHT22;6230;52.390;10.256;2023-03-18T08:36:41;15.10;68.40
12329;DHT22;6230;52.390;10.256;2023-03-18T08:39:07;15.20;68.30
12329;DHT22;6230;52.390;10.256;2023-03-18T08:41:34;15.30;68.20
12329;DHT22;6230;52.390;10.256;2023-03-18T08:44:01;15.40;68.20
12329;DHT22;6230;52.390;10.256;2023-03-18T08:46:27;15.40;68.10
12329;DHT22;6230;52.390;10.256;2023-03-18T08:48:53;15.50;68.20
12329;DHT22;6230;52.390;10.256;2023-03-18T08:51:19;15.50;68.10
12329;DHT22;6230;52.390;10.256;2023-03-18T08:53:46;15.50;68.10
12329;DHT22;6230;52.390;10.256;2023-03-18T08:56:12;15.60;68.20
12329;DHT22;6230;52.390;10.256;2023-03-18T08:58:39;15.60;69.00
12329;DHT22;6230;52.390;10.256;2023-03-18T09:01:04;15.70;68.20
12329;DHT22;6230;52.390;10.256;2023-03-18T09:03:30;15.80;68.20
12329;DHT22;6230;52.390;10.256;2023-03-18T09:05:56;15.80;68.10
12329;DHT22;6230;52.390;10.256;2023-03-18T09:08:22;15.90;68.00
12329;DHT22;6230;52.390;10.256;2023-03-18T09:10:52;15.90;67.90
12329;DHT22;6230;52.390;10.256;2023-03-18T09:13:18;16.00;67.80
12329;DHT22;6230;52.390;10.256;2023-03-18T09:15:44;16.10;68.00
12329;DHT22;6230;52.390;10.256;2023-03-18T09:18:09;16.20;67.70
12329;DHT22;6230;52.390;10.256;2023-03-18T09:20:35;16.30;67.60
12329;DHT22;6230;52.390;10.256;2023-03-18T09:23:02;16.40;67.40
12329;DHT22;6230;52.390;10.256;2023-03-18T09:25:28;16.60;67.20
12329;DHT22;6230;52.390;10.256;2023-03-18T09:27:53;16.70;67.00
12329;DHT22;6230;52.390;10.256;2023-03-18T09:30:19;16.90;66.80
12329;DHT22;6230;52.390;10.256;2023-03-18T09:32:45;17.10;66.50
12329;DHT22;6230;52.390;10.256;2023-03-18T09:35:11;17.20;66.00
12329;DHT22;6230;52.390;10.256;2023-03-18T09:37:37;17.30;65.80
12329;DHT22;6230;52.390;10.256;2023-03-18T09:40:04;17.30;65.50
12329;DHT22;6230;52.390;10.256;2023-03-18T09:42:50;17.40;65.50
12329;DHT22;6230;52.390;10.256;2023-03-18T09:45:34;17.40;65.20
12329;DHT22;6230;52.390;10.256;2023-03-18T09:54:07;17.30;64.90
12329;DHT22;6230;52.390;10.256;2023-03-18T09:56:35;17.20;65.00
12329;DHT22;6230;52.390;10.256;2023-03-18T09:59:24;17.20;65.00
12329;DHT22;6230;52.390;10.256;2023-03-18T10:01:55;17.30;65.20
12329;DHT22;6230;52.390;10.256;2023-03-18T10:04:27;17.40;65.20
12329;DHT22;6230;52.390;10.256;2023-03-18T10:07:12;17.60;65.00
12329;DHT22;6230;52.390;10.256;2023-03-18T10:09:42;17.70;64.50
12329;DHT22;6230;52.390;10.256;2023-03-18T10:12:36;17.80;64.20
12329;DHT22;6230;52.390;10.256;2023-03-18T10:20:57;18.40;63.30
12329;DHT22;6230;52.390;10.256;2023-03-18T10:23:49;18.50;63.00
12329;DHT22;6230;52.390;10.256;2023-03-18T10:26:35;18.50;62.40
12329;DHT22;6230;52.390;10.256;2023-03-18T10:29:20;18.50;62.20
12329;DHT22;6230;52.390;10.256;2023-03-18T10:32:02;18.40;61.80
12329;DHT22;6230;52.390;10.256;2023-03-18T10:37:40;18.30;62.20
12329;DHT22;6230;52.390;10.256;2023-03-18T10:40:13;18.20;61.70
12329;DHT22;6230;52.390;10.256;2023-03-18T10:42:40;18.10;61.80
12329;DHT22;6230;52.390;10.256;2023-03-18T10:45:23;18.10;62.00
12329;DHT22;6230;52.390;10.256;2023-03-18T10:50:53;18.10;61.50
12329;DHT22;6230;52.390;10.256;2023-03-18T10:53:43;18.10;61.60
12329;DHT22;6230;52.390;10.256;2023-03-18T10:56:12;18.20;61.40
12329;DHT22;6230;52.390;10.256;2023-03-18T10:58:39;18.30;61.30
12329;DHT22;6230;52.390;10.256;2023-03-18T11:01:08;18.30;60.80
12329;DHT22;6230;52.390;10.256;2023-03-18T11:03:40;18.40;60.70
12329;DHT22;6230;52.390;10.256;2023-03-18T11:06:15;18.40;60.70
12329;DHT22;6230;52.390;10.256;2023-03-18T11:08:41;18.40;60.70
12329;DHT22;6230;52.390;10.256;2023-03-18T11:13:49;18.60;60.10
12329;DHT22;6230;52.390;10.256;2023-03-18T11:16:45;18.70;60.20
12329;DHT22;6230;52.390;10.256;2023-03-18T11:19:39;19.00;59.90
12329;DHT22;6230;52.390;10.256;2023-03-18T11:24:36;19.60;59.00
12329;DHT22;6230;52.390;10.256;2023-03-18T11:29:42;19.90;58.50
12329;DHT22;6230;52.390;10.256;2023-03-18T11:32:28;20.00;58.20
12329;DHT22;6230;52.390;10.256;2023-03-18T11:35:01;20.10;57.40
12329;DHT22;6230;52.390;10.256;2023-03-18T11:37:35;20.10;57.50
12329;DHT22;6230;52.390;10.256;2023-03-18T11:40:25;20.20;57.30
12329;DHT22;6230;52.390;10.256;2023-03-18T11:43:01;20.20;56.90
12329;DHT22;6230;52.390;10.256;2023-03-18T11:48:31;20.00;56.40
12329;DHT22;6230;52.390;10.256;2023-03-18T11:56:45;19.80;56.10
12329;DHT22;6230;52.390;10.256;2023-03-18T11:59:27;19.80;56.00
12329;DHT22;6230;52.390;10.256;2023-03-18T12:12:53;19.50;56.00
12329;DHT22;6230;52.390;10.256;2023-03-18T12:20:47;19.70;55.60
12329;DHT22;6230;52.390;10.256;2023-03-18T12:23:33;19.80;55.40
12329;DHT22;6230;52.390;10.256;2023-03-18T12:26:06;19.90;55.10
12329;DHT22;6230;52.390;10.256;2023-03-18T12:34:41;20.40;54.60
12329;DHT22;6230;52.390;10.256;2023-03-18T12:37:45;20.70;54.40
12329;DHT22;6230;52.390;10.256;2023-03-18T12:45:51;21.20;53.40
12329;DHT22;6230;52.390;10.256;2023-03-18T12:48:22;21.20;53.20
12329;DHT22;6230;52.390;10.256;2023-03-18T12:51:04;21.20;52.90
12329;DHT22;6230;52.390;10.256;2023-03-18T12:53:39;21.10;52.80
12329;DHT22;6230;52.390;10.256;2023-03-18T12:56:24;21.00;53.00
12329;DHT22;6230;52.390;10.256;2023-03-18T12:59:01;21.00;52.70
12329;DHT22;6230;52.390;10.256;2023-03-18T13:04:23;21.20;52.60
12329;DHT22;6230;52.390;10.256;2023-03-18T13:09:42;21.50;52.40
12329;DHT22;6230;52.390;10.256;2023-03-18T13:12:21;21.40;51.60
12329;DHT22;6230;52.390;10.256;2023-03-18T13:18:23;21.30;51.80
12329;DHT22;6230;52.390;10.256;2023-03-18T13:20:48;21.40;51.90
12329;DHT22;6230;52.390;10.256;2023-03-18T13:35:14;22.20;51.50
12329;DHT22;6230;52.390;10.256;2023-03-18T13:38:16;22.50;50.70
12329;DHT22;6230;52.390;10.256;2023-03-18T13:41:20;22.70;50.70
12329;DHT22;6230;52.390;10.256;2023-03-18T13:43:55;22.80;50.40
12329;DHT22;6230;52.390;10.256;2023-03-18T13:46:27;22.70;50.40
12329;DHT22;6230;52.390;10.256;2023-03-18T13:48:55;22.50;50.50
12329;DHT22;6230;52.390;10.256;2023-03-18T13:53:52;22.40;50.40
12329;DHT22;6230;52.390;10.256;2023-03-18T14:04:50;22.60;50.00
12329;DHT22;6230;52.390;10.256;2023-03-18T14:07:16;22.60;50.10
12329;DHT22;6230;52.390;10.256;2023-03-18T14:09:49;22.40;50.00
12329;DHT22;6230;52.390;10.256;2023-03-18T14:12:37;22.20;50.10
12329;DHT22;6230;52.390;10.256;2023-03-18T14:17:52;21.90;50.40
12329;DHT22;6230;52.390;10.256;2023-03-18T14:20:35;21.80;50.30
12329;DHT22;6230;52.390;10.256;2023-03-18T14:23:32;21.70;50.50
12329;DHT22;6230;52.390;10.256;2023-03-18T14:26:06;21.60;50.60
12329;DHT22;6230;52.390;10.256;2023-03-18T14:28:48;21.50;50.70
12329;DHT22;6230;52.390;10.256;2023-03-18T14:39:51;21.20;50.60
12329;DHT22;6230;52.390;10.256;2023-03-18T14:45:40;20.90;50.80
12329;DHT22;6230;52.390;10.256;2023-03-18T14:47:49;20.90;51.00
12329;DHT22;6230;52.390;10.256;2023-03-18T14:50:35;20.80;51.00
12329;DHT22;6230;52.390;10.256;2023-03-18T14:53:15;20.80;50.90
12329;DHT22;6230;52.390;10.256;2023-03-18T14:55:42;20.70;51.50
12329;DHT22;6230;52.390;10.256;2023-03-18T14:58:14;20.60;51.00
12329;DHT22;6230;52.390;10.256;2023-03-18T15:00:41;20.60;51.00
12329;DHT22;6230;52.390;10.256;2023-03-18T15:03:11;20.60;50.90
12329;DHT22;6230;52.390;10.256;2023-03-18T15:05:40;20.60;50.90
12329;DHT22;6230;52.390;10.256;2023-03-18T15:08:15;20.60;50.90
12329;DHT22;6230;52.390;10.256;2023-03-18T15:10:48;20.60;50.90
12329;DHT22;6230;52.390;10.256;2023-03-18T15:13:17;20.50;50.80
12329;DHT22;6230;52.390;10.256;2023-03-18T15:15:43;20.50;50.90
12329;DHT22;6230;52.390;10.256;2023-03-18T15:18:22;20.50;51.10
12329;DHT22;6230;52.390;10.256;2023-03-18T15:21:18;20.50;51.00
12329;DHT22;6230;52.390;10.256;2023-03-18T15:23:46;20.50;50.90
12329;DHT22;6230;52.390;10.256;2023-03-18T15:26:36;20.50;51.00
12329;DHT22;6230;52.390;10.256;2023-03-18T15:31:50;20.40;51.00
12329;DHT22;6230;52.390;10.256;2023-03-18T15:34:28;20.40;51.20
12329;DHT22;6230;52.390;10.256;2023-03-18T15:36:55;20.40;51.10
12329;DHT22;6230;52.390;10.256;2023-03-18T15:39:32;20.40;51.20
12329;DHT22;6230;52.390;10.256;2023-03-18T15:41:58;20.40;51.20
12329;DHT22;6230;52.390;10.256;2023-03-18T15:44:37;20.40;51.10
12329;DHT22;6230;52.390;10.256;2023-03-18T15:47:20;20.50;51.20
12329;DHT22;6230;52.390;10.256;2023-03-18T15:52:30;20.50;51.10
12329;DHT22;6230;52.390;10.256;2023-03-18T15:54:57;20.50;51.20
12329;DHT22;6230;52.390;10.256;2023-03-18T15:57:36;20.60;51.30
12329;DHT22;6230;52.390;10.256;2023-03-18T16:00:04;20.60;51.10
12329;DHT22;6230;52.390;10.256;2023-03-18T16:02:35;20.60;51.10
12329;DHT22;6230;52.390;10.256;2023-03-18T16:05:14;20.50;51.00
12329;DHT22;6230;52.390;10.256;2023-03-18T16:07:40;20.50;51.10
12329;DHT22;6230;52.390;10.256;2023-03-18T16:10:06;20.50;51.20
12329;DHT22;6230;52.390;10.256;2023-03-18T16:12:33;20.50;51.20
12329;DHT22;6230;52.390;10.256;2023-03-18T16:15:01;20.50;51.00
12329;DHT22;6230;52.390;10.256;2023-03-18T16:17:29;20.50;50.90
12329;DHT22;6230;52.390;10.256;2023-03-18T16:19:55;20.40;51.00
12329;DHT22;6230;52.390;10.256;2023-03-18T16:22:21;20.30;51.00
12329;DHT22;6230;52.390;10.256;2023-03-18T16:24:47;20.30;51.10
12329;DHT22;6230;52.390;10.256;2023-03-18T16:27:40;20.20;51.10
12329;DHT22;6230;52.390;10.256;2023-03-18T16:30:15;20.20;51.10
12329;DHT22;6230;52.390;10.256;2023-03-18T16:32:42;20.20;51.30
12329;DHT22;6230;52.390;10.256;2023-03-18T16:35:12;20.20;51.30
12329;DHT22;6230;52.390;10.256;2023-03-18T16:37:40;20.20;51.30
12329;DHT22;6230;52.390;10.256;2023-03-18T16:40:24;20.20;51.30
12329;DHT22;6230;52.390;10.256;2023-03-18T16:42:50;20.20;51.40
12329;DHT22;6230;52.390;10.256;2023-03-18T16:45:19;20.20;51.50
12329;DHT22;6230;52.390;10.256;2023-03-18T16:47:48;20.10;51.50
12329;DHT22;6230;52.390;10.256;2023-03-18T16:50:19;20.10;51.50
12329;DHT22;6230;52.390;10.256;2023-03-18T16:52:46;20.10;51.50
12329;DHT22;6230;52.390;10.256;2023-03-18T16:55:14;20.10;51.60
12329;DHT22;6230;52.390;10.256;2023-03-18T16:57:50;20.10;51.70
12329;DHT22;6230;52.390;10.256;2023-03-18T17:00:22;20.10;51.50
12329;DHT22;6230;52.390;10.256;2023-03-18T17:02:48;20.10;51.50
12329;DHT22;6230;52.390;10.256;2023-03-18T17:05:17;20.10;51.60
12329;DHT22;6230;52.390;10.256;2023-03-18T17:07:43;20.10;51.60
12329;DHT22;6230;52.390;10.256;2023-03-18T17:10:11;20.00;51.60
12329;DHT22;6230;52.390;10.256;2023-03-18T17:12:38;20.00;51.70
12329;DHT22;6230;52.390;10.256;2023-03-18T17:15:05;20.00;51.70
12329;DHT22;6230;52.390;10.256;2023-03-18T17:17:34;20.00;51.80
12329;DHT22;6230;52.390;10.256;2023-03-18T17:20:01;19.90;51.90
12329;DHT22;6230;52.390;10.256;2023-03-18T17:22:28;19.90;52.00
12329;DHT22;6230;52.390;10.256;2023-03-18T17:24:55;19.90;52.20
12329;DHT22;6230;52.390;10.256;2023-03-18T17:27:27;19.90;52.40
12329;DHT22;6230;52.390;10.256;2023-03-18T17:29:53;19.90;52.60
12329;DHT22;6230;52.390;10.256;2023-03-18T17:32:20;19.80;52.70
12329;DHT22;6230;52.390;10.256;2023-03-18T17:34:48;19.80;52.70
12329;DHT22;6230;52.390;10.256;2023-03-18T17:37:14;19.70;52.70
12329;DHT22;6230;52.390;10.256;2023-03-18T17:39:39;19.60;52.60
12329;DHT22;6230;52.390;10.256;2023-03-18T17:42:08;19.50;52.70